Time;durP1;ratioP1;P1;durP2;ratioP2;P2;SDS_P1;SDS_P2;PMS_P1;PMS_P2;Temp;Humidity;BMP_temperature;BMP_pressure;BME280_temperature;BME280_humidity;BME280_pressure;Samples;Min_cycle;Max_cycle;Signal;HPM_P1;HPM_P2
2022/03/11 00:01:03;;;;;;;24.85;14.63;;;;;;;5.63;47.37;101723.31;5052547;28;20036;-58
2022/03/11 00:03:28;;;;;;;22.83;13.88;;;;;;;5.59;47.79;101717.50;5052572;28;20469;-57
2022/03/11 00:05:54;;;;;;;23.88;15.10;;;;;;;5.55;47.71;101705.34;5052285;28;20131;-57
2022/03/11 00:08:19;;;;;;;23.90;14.65;;;;;;;5.59;47.84;101720.25;5052276;28;20040;-57
2022/03/11 00:10:45;;;;;;;23.58;14.45;;;;;;;5.58;47.49;101712.22;5052065;28;20404;-57
2022/03/11 00:13:10;;;;;;;23.40;14.18;;;;;;;5.59;47.63;101711.16;5052835;28;20028;-56
2022/03/11 00:15:35;;;;;;;24.65;14.60;;;;;;;5.61;47.72;101706.25;5051533;28;20385;-57
2022/03/11 00:18:01;;;;;;;24.00;14.32;;;;;;;5.62;47.93;101707.91;5052116;28;20037;-57
2022/03/11 00:20:26;;;;;;;23.13;14.35;;;;;;;5.63;47.98;101707.66;5055608;28;20082;-58
2022/03/11 00:22:52;;;;;;;23.80;14.55;;;;;;;5.63;47.96;101699.41;5059830;28;20032;-57
2022/03/11 00:25:19;;;;;;;25.00;14.20;;;;;;;5.55;47.71;101688.06;5052104;28;20471;-57
2022/03/11 00:27:45;;;;;;;22.55;14.15;;;;;;;5.60;47.93;101702.69;5052324;28;20021;-57
2022/03/11 00:30:11;;;;;;;25.95;14.32;;;;;;;5.58;47.53;101704.00;5052669;28;20037;-58
2022/03/11 00:32:38;;;;;;;23.73;14.77;;;;;;;5.56;47.97;101701.50;5052158;28;20523;-57
2022/03/11 00:35:07;;;;;;;22.10;14.15;;;;;;;5.52;48.54;101707.75;5059412;28;20021;-57
2022/03/11 00:37:32;;;;;;;22.88;14.75;;;;;;;5.45;48.14;101703.28;5072053;28;20031;-57
2022/03/11 00:39:57;;;;;;;26.08;15.15;;;;;;;5.46;48.10;101693.97;5071008;28;20024;-57
2022/03/11 00:42:23;;;;;;;23.58;14.73;;;;;;;5.43;47.80;101696.38;5072132;28;20082;-58
2022/03/11 00:44:49;;;;;;;24.67;14.63;;;;;;;5.41;47.96;101693.06;5070864;28;20111;-57
2022/03/11 00:47:14;;;;;;;21.90;13.82;;;;;;;5.37;47.78;101700.97;5071679;28;20082;-57
2022/03/11 00:49:39;;;;;;;26.33;14.40;;;;;;;5.32;47.70;101695.38;5070981;28;20040;-56
2022/03/11 00:52:05;;;;;;;24.35;15.10;;;;;;;5.26;48.74;101693.63;5057928;28;20428;-56
2022/03/11 00:54:31;;;;;;;23.75;14.60;;;;;;;5.22;48.46;101690.56;5064533;28;20111;-57
2022/03/11 00:56:56;;;;;;;22.88;13.90;;;;;;;5.17;49.21;101695.94;5070982;28;20029;-56
2022/03/11 00:59:22;;;;;;;25.55;15.50;;;;;;;5.13;48.43;101692.06;5054192;28;20024;-57
2022/03/11 01:01:47;;;;;;;23.55;14.15;;;;;;;5.10;48.49;101692.53;5071303;28;20067;-57
2022/03/11 01:04:12;;;;;;;24.95;14.90;;;;;;;5.08;49.29;101691.97;5072257;28;20024;-57
2022/03/11 01:06:38;;;;;;;25.23;14.48;;;;;;;5.03;49.15;101692.69;5054526;28;20025;-57
2022/03/11 01:09:04;;;;;;;23.73;14.48;;;;;;;4.99;49.08;101686.06;5071856;28;20024;-56
2022/03/11 01:11:29;;;;;;;24.25;14.45;;;;;;;4.97;49.55;101682.72;5071665;28;20120;-57
2022/03/11 01:13:57;;;;;;;23.63;14.20;;;;;;;4.93;50.29;101676.91;5072118;28;20032;-59
2022/03/11 01:16:23;;;;;;;22.38;14.15;;;;;;;4.90;49.08;101674.66;5055442;28;20107;-58
2022/03/11 01:18:49;;;;;;;24.98;14.88;;;;;;;4.84;49.10;101671.00;5057033;28;20111;-57
2022/03/11 01:21:14;;;;;;;23.20;13.95;;;;;;;4.80;49.62;101671.75;5060542;28;20127;-58
2022/03/11 01:23:39;;;;;;;22.70;14.68;;;;;;;4.77;50.25;101673.06;5062845;28;20469;-58
2022/03/11 01:26:05;;;;;;;25.25;14.73;;;;;;;4.74;49.18;101665.31;5055453;28;20036;-57
2022/03/11 01:28:31;;;;;;;24.85;14.73;;;;;;;4.68;50.30;101658.91;5055208;28;20033;-56
2022/03/11 01:30:56;;;;;;;24.27;14.68;;;;;;;4.63;50.06;101649.81;5056194;28;20100;-56
2022/03/11 01:33:22;;;;;;;23.70;14.73;;;;;;;4.63;50.72;101652.53;5055552;28;20384;-58
2022/03/11 01:35:48;;;;;;;24.23;15.07;;;;;;;4.54;50.07;101646.63;5037317;28;20121;-57
2022/03/11 01:38:13;;;;;;;25.15;15.32;;;;;;;4.55;50.79;101639.22;5055174;28;20021;-56
2022/03/11 01:40:39;;;;;;;24.52;14.90;;;;;;;4.51;50.05;101650.69;5054231;28;20025;-56
2022/03/11 01:43:11;;;;;;;24.30;14.70;;;;;;;4.48;50.10;101639.38;5052603;28;20076;-57
2022/03/11 01:45:36;;;;;;;25.05;15.45;;;;;;;4.45;50.25;101634.38;5053340;28;20115;-57
2022/03/11 01:48:01;;;;;;;25.95;15.48;;;;;;;4.43;50.80;101628.31;5054929;28;20107;-57
2022/03/11 01:50:27;;;;;;;24.25;15.30;;;;;;;4.41;49.97;101633.19;5055809;28;20469;-57
2022/03/11 01:52:52;;;;;;;23.55;14.73;;;;;;;4.39;50.32;101627.97;5066175;28;20029;-57
2022/03/11 01:55:18;;;;;;;25.88;15.38;;;;;;;4.36;50.24;101617.50;5054744;28;20040;-57
2022/03/11 01:57:43;;;;;;;24.98;15.10;;;;;;;4.33;50.40;101618.00;5055028;28;20036;-56
2022/03/11 02:00:09;;;;;;;24.80;15.68;;;;;;;4.35;50.60;101613.94;5054282;28;20024;-56
2022/03/11 02:02:34;;;;;;;24.77;16.05;;;;;;;4.34;50.68;101606.78;5054722;28;20029;-56
2022/03/11 02:05:00;;;;;;;24.20;15.00;;;;;;;4.35;50.14;101608.47;5054848;28;20021;-56
2022/03/11 02:07:26;;;;;;;24.73;15.10;;;;;;;4.32;50.57;101597.97;5054962;28;20504;-58
2022/03/11 02:09:52;;;;;;;24.85;15.57;;;;;;;4.35;50.78;101599.41;5055118;28;20071;-59
2022/03/11 02:12:32;;;;;;;24.00;14.73;;;;;;;4.34;51.51;101601.31;5055655;28;20148;-57
2022/03/11 02:15:00;;;;;;;25.38;14.82;;;;;;;4.33;51.26;101590.63;5054703;28;20197;-57
2022/03/11 02:17:25;;;;;;;24.10;14.77;;;;;;;4.29;50.63;101579.31;5054435;28;20180;-56
2022/03/11 02:19:50;;;;;;;25.02;14.63;;;;;;;4.34;50.79;101586.81;5054426;28;20408;-57
2022/03/11 02:22:17;;;;;;;23.05;13.60;;;;;;;4.33;50.66;101574.19;5064791;28;20086;-57
2022/03/11 02:24:42;;;;;;;23.63;14.20;;;;;;;4.32;51.17;101581.53;5057027;28;20028;-56
2022/03/11 02:27:07;;;;;;;24.33;14.20;;;;;;;4.27;50.41;101569.66;5054028;28;20051;-56
2022/03/11 02:29:32;;;;;;;25.45;14.18;;;;;;;4.24;51.68;101564.69;5036339;28;20039;-57
2022/03/11 02:31:58;;;;;;;23.90;14.70;;;;;;;4.26;51.26;101571.59;5054524;28;20025;-57
2022/03/11 02:34:23;;;;;;;24.90;14.25;;;;;;;4.25;51.42;101560.88;5053790;28;20116;-56
2022/03/11 02:36:49;;;;;;;25.20;14.57;;;;;;;4.23;51.08;101566.59;5053747;28;20032;-56
2022/03/11 02:39:14;;;;;;;22.77;14.35;;;;;;;4.26;51.15;101568.00;5053811;28;20465;-57
2022/03/11 02:41:42;;;;;;;23.85;15.10;;;;;;;4.24;50.92;101562.78;5054301;28;20025;-56
2022/03/11 02:44:08;;;;;;;22.85;14.30;;;;;;;4.19;51.80;101554.47;5054445;28;20029;-57
2022/03/11 02:46:34;;;;;;;24.02;14.55;;;;;;;4.21;51.67;101555.03;5054131;28;20056;-57
2022/03/11 02:48:59;;;;;;;24.63;14.38;;;;;;;4.20;51.48;101561.63;5053904;28;20428;-56
2022/03/11 02:51:24;;;;;;;25.38;15.02;;;;;;;4.19;51.24;101560.78;5053990;28;20492;-56
2022/03/11 02:53:50;;;;;;;23.42;13.75;;;;;;;4.16;52.07;101557.69;5054507;28;20032;-56
2022/03/11 02:56:15;;;;;;;24.13;14.73;;;;;;;4.12;51.80;101545.56;5064506;28;20294;-55
2022/03/11 02:58:41;;;;;;;22.55;13.70;;;;;;;4.08;51.49;101542.47;5035671;28;20099;-57
2022/03/11 03:01:07;;;;;;;25.25;15.07;;;;;;;4.09;51.67;101546.06;5054194;28;20400;-57
2022/03/11 03:03:33;;;;;;;25.58;15.13;;;;;;;4.06;51.79;101550.13;5053865;28;20025;-56
2022/03/11 03:05:58;;;;;;;24.70;14.38;;;;;;;4.02;51.86;101543.47;5053933;28;20079;-55
2022/03/11 03:08:23;;;;;;;25.70;14.88;;;;;;;4.02;52.37;101552.50;5053216;28;20112;-56
2022/03/11 03:10:49;;;;;;;23.55;14.38;;;;;;;4.01;51.79;101552.75;5064952;23;20063;-53
2022/03/11 03:13:14;;;;;;;23.98;15.13;;;;;;;4.00;51.07;101543.72;5093571;28;20103;-53
2022/03/11 03:15:40;;;;;;;25.00;14.35;;;;;;;3.98;52.07;101543.13;5093244;28;20020;-54
2022/03/11 03:18:05;;;;;;;23.13;14.07;;;;;;;3.95;51.90;101551.00;5108405;28;20085;-52
2022/03/11 03:20:30;;;;;;;24.80;15.02;;;;;;;3.95;51.49;101551.00;5093240;28;20024;-53
2022/03/11 03:22:55;;;;;;;24.65;14.13;;;;;;;3.96;51.68;101547.19;5093029;28;20479;-48
2022/03/11 03:25:21;;;;;;;23.48;13.90;;;;;;;3.95;51.65;101538.13;5093847;28;20027;-53
2022/03/11 03:27:46;;;;;;;24.95;15.32;;;;;;;3.92;52.14;101537.81;5085275;28;20028;-52
2022/03/11 03:30:12;;;;;;;24.73;14.38;;;;;;;3.89;51.46;101542.69;5081743;28;20032;-48
2022/03/11 03:32:41;;;;;;;25.48;15.27;;;;;;;3.86;51.97;101540.44;5071609;28;20480;-49
2022/03/11 03:35:07;;;;;;;24.13;15.38;;;;;;;3.85;51.94;101537.94;5073390;28;20028;-51
2022/03/11 03:37:34;;;;;;;25.33;14.63;;;;;;;3.83;52.33;101537.34;5072898;28;20028;-50
2022/03/11 03:39:59;;;;;;;23.67;14.50;;;;;;;3.82;52.36;101530.25;5073611;28;20099;-51
2022/03/11 03:42:26;;;;;;;23.98;13.82;;;;;;;3.82;52.05;101527.50;5073392;28;20124;-51
2022/03/11 03:44:53;;;;;;;24.83;14.38;;;;;;;3.79;52.03;101526.06;5073801;28;20028;-52
2022/03/11 03:47:19;;;;;;;22.30;13.77;;;;;;;3.80;52.56;101530.47;5073472;28;20073;-49
2022/03/11 03:49:45;;;;;;;23.40;14.68;;;;;;;3.84;51.66;101528.91;5073252;28;20056;-51
2022/03/11 03:52:12;;;;;;;24.42;15.07;;;;;;;3.89;51.94;101530.91;5072367;28;20052;-53
2022/03/11 03:54:38;;;;;;;22.45;14.20;;;;;;;3.91;52.26;101523.28;5073544;28;20028;-52
2022/03/11 03:57:03;;;;;;;24.45;14.20;;;;;;;3.89;52.08;101529.00;5073967;28;20387;-52
2022/03/11 03:59:28;;;;;;;24.98;14.70;;;;;;;3.90;52.19;101527.09;5084456;28;20024;-57
2022/03/11 04:01:53;;;;;;;25.38;14.55;;;;;;;3.96;51.31;101523.38;5073071;28;20039;-51
2022/03/11 04:04:19;;;;;;;24.77;14.10;;;;;;;3.93;51.46;101523.03;5073097;28;20024;-52
2022/03/11 04:06:44;;;;;;;23.50;14.05;;;;;;;3.93;51.53;101521.13;5073000;28;20025;-52
2022/03/11 04:09:09;;;;;;;23.77;13.75;;;;;;;3.97;51.27;101525.03;5072794;28;20155;-52
2022/03/11 04:11:35;;;;;;;24.42;14.20;;;;;;;3.95;51.03;101516.25;5072800;28;20487;-52
2022/03/11 04:14:01;;;;;;;22.30;14.02;;;;;;;3.97;51.21;101518.75;5072764;28;20031;-49
2022/03/11 04:16:27;;;;;;;24.60;13.95;;;;;;;3.95;51.52;101520.91;5073344;28;20029;-48
2022/03/11 04:18:54;;;;;;;25.30;13.80;;;;;;;3.96;51.23;101522.56;5072448;28;20049;-48
2022/03/11 04:21:20;;;;;;;24.00;13.95;;;;;;;3.97;51.90;101514.09;5072943;28;20025;-48
2022/03/11 04:23:47;;;;;;;22.45;13.00;;;;;;;3.97;51.52;101516.00;5072359;28;20396;-48
2022/03/11 04:26:13;;;;;;;23.92;13.13;;;;;;;3.99;51.33;101517.41;5072534;28;20025;-48
2022/03/11 04:28:38;;;;;;;23.42;13.15;;;;;;;4.00;51.22;101512.75;5074026;28;20035;-48
2022/03/11 04:31:08;;;;;;;22.65;12.93;;;;;;;3.97;51.32;101510.53;5083925;28;20035;-49
2022/03/11 04:33:34;;;;;;;22.83;12.68;;;;;;;3.96;51.69;101514.34;5071805;28;20055;-53
2022/03/11 04:36:00;;;;;;;24.10;13.95;;;;;;;3.97;51.14;101508.63;5072735;28;20029;-51
2022/03/11 04:38:26;;;;;;;22.38;13.75;;;;;;;3.93;51.83;101507.44;5072522;28;20456;-57
2022/03/11 04:40:51;;;;;;;23.95;13.80;;;;;;;3.94;50.89;101505.53;5072780;28;20024;-54
2022/03/11 04:43:16;;;;;;;22.17;13.45;;;;;;;3.92;51.35;101510.44;5072422;28;20039;-52
2022/03/11 04:45:42;;;;;;;24.85;13.15;;;;;;;3.86;51.91;101504.88;5072205;28;20464;-52
2022/03/11 04:48:07;;;;;;;22.77;13.50;;;;;;;3.86;51.51;101510.34;5072523;28;20031;-50
2022/03/11 04:50:32;;;;;;;23.08;13.70;;;;;;;3.89;51.73;101509.00;5072256;28;20017;-52
2022/03/11 04:52:58;;;;;;;22.90;12.90;;;;;;;3.91;52.45;101506.88;5072757;28;20098;-52
2022/03/11 04:55:23;;;;;;;24.30;14.43;;;;;;;3.92;52.02;101504.94;5076571;28;20515;-52
2022/03/11 04:57:48;;;;;;;22.23;12.70;;;;;;;3.88;51.86;101502.69;5078613;28;20082;-53
2022/03/11 05:00:15;;;;;;;22.48;12.25;;;;;;;3.92;51.75;101513.97;5072058;28;20029;-53
2022/03/11 05:02:45;;;;;;;22.10;12.52;;;;;;;3.87;51.84;101508.44;5079087;28;20025;-53
2022/03/11 05:05:14;;;;;;;22.42;12.15;;;;;;;3.86;52.14;101512.22;5076393;28;20456;-52
2022/03/11 05:07:40;;;;;;;23.20;13.77;;;;;;;3.84;52.28;101509.75;5072605;28;20028;-49
2022/03/11 05:10:07;;;;;;;21.58;11.77;;;;;;;3.86;52.10;101502.13;5072170;28;20025;-51
2022/03/11 05:12:32;;;;;;;23.48;13.20;;;;;;;3.84;52.24;101498.81;5071716;28;20020;-53
2022/03/11 05:14:58;;;;;;;23.98;12.90;;;;;;;3.81;52.31;101491.06;5072450;28;20502;-53
2022/03/11 05:17:23;;;;;;;23.02;12.95;;;;;;;3.86;52.38;101499.41;5071442;28;20056;-53
2022/03/11 05:19:49;;;;;;;22.13;12.88;;;;;;;3.87;52.45;101492.81;5071463;28;20021;-50
2022/03/11 05:22:14;;;;;;;22.35;13.48;;;;;;;3.88;52.26;101488.19;5072136;28;20032;-53
2022/03/11 05:24:40;;;;;;;22.92;13.20;;;;;;;3.89;52.78;101495.31;5072908;28;20063;-53
2022/03/11 05:27:07;;;;;;;21.80;12.43;;;;;;;3.87;52.77;101495.56;5071506;28;20523;-52
2022/03/11 05:29:34;;;;;;;22.77;12.90;;;;;;;3.85;53.28;101491.41;5072414;28;20089;-54
2022/03/11 05:31:59;;;;;;;23.33;13.40;;;;;;;3.82;52.80;101489.19;5072892;28;20086;-51
2022/03/11 05:34:24;;;;;;;24.45;13.88;;;;;;;3.82;53.04;101480.97;5071775;28;20016;-49
2022/03/11 05:36:50;;;;;;;22.30;12.40;;;;;;;3.81;53.25;101484.78;5072162;28;20025;-50
2022/03/11 05:39:15;;;;;;;23.20;13.15;;;;;;;3.83;53.06;101486.19;5073149;28;20020;-52
2022/03/11 05:41:41;;;;;;;23.42;13.32;;;;;;;3.84;53.32;101484.25;5086398;28;20111;-52
2022/03/11 05:44:06;;;;;;;24.75;13.30;;;;;;;3.81;53.03;101484.78;5092036;28;20056;-52
2022/03/11 05:46:31;;;;;;;25.67;13.25;;;;;;;3.78;53.06;101479.78;5092004;28;20479;-50
2022/03/11 05:48:57;;;;;;;24.70;14.45;;;;;;;3.77;53.58;101489.91;5091818;28;20035;-55
2022/03/11 05:51:22;;;;;;;23.70;13.93;;;;;;;3.76;53.95;101480.03;5092284;28;20028;-52
2022/03/11 05:53:47;;;;;;;24.05;13.43;;;;;;;3.74;54.10;101476.72;5090354;28;20046;-53
2022/03/11 05:56:13;;;;;;;23.92;14.05;;;;;;;3.74;54.02;101473.97;5091727;28;20148;-53
2022/03/11 05:58:38;;;;;;;23.45;14.63;;;;;;;3.71;54.44;101468.97;5091948;28;20049;-53
2022/03/11 06:01:03;;;;;;;25.60;14.20;;;;;;;3.73;54.13;101467.66;5092219;28;20077;-51
2022/03/11 06:03:29;;;;;;;24.92;14.93;;;;;;;3.73;54.89;101475.88;5094836;28;20028;-51
2022/03/11 06:05:55;;;;;;;22.67;14.32;;;;;;;3.74;54.32;101473.97;5089883;28;20028;-51
2022/03/11 06:08:20;;;;;;;26.38;14.23;;;;;;;3.75;54.41;101479.19;5084182;28;20035;-53
2022/03/11 06:10:46;;;;;;;22.50;13.95;;;;;;;3.73;54.82;101477.78;5074726;28;20052;-50
2022/03/11 06:13:11;;;;;;;23.95;13.57;;;;;;;3.66;55.01;101472.44;5075126;28;20416;-47
2022/03/11 06:15:37;;;;;;;26.73;14.02;;;;;;;3.69;54.77;101474.69;5074056;28;20385;-48
2022/03/11 06:18:02;;;;;;;24.02;13.88;;;;;;;3.74;54.95;101473.97;5074572;28;20133;-49
2022/03/11 06:20:29;;;;;;;25.05;13.95;;;;;;;3.74;54.25;101471.25;5075280;28;20099;-49
2022/03/11 06:22:55;;;;;;;24.73;14.27;;;;;;;3.79;54.43;101479.53;5075002;28;20448;-49
2022/03/11 06:25:20;;;;;;;22.38;13.07;;;;;;;3.77;54.35;101469.91;5075276;28;20476;-49
2022/03/11 06:27:46;;;;;;;24.40;13.73;;;;;;;3.79;55.32;101475.97;5075181;28;20037;-51
2022/03/11 06:30:12;;;;;;;24.17;13.63;;;;;;;3.79;55.33;101474.06;5074884;28;20487;-49
2022/03/11 06:32:48;;;;;;;23.45;14.32;;;;;;;3.79;55.05;101473.25;5074125;28;20472;-50
2022/03/11 06:35:15;;;;;;;25.65;13.13;;;;;;;3.86;55.29;101473.91;5075137;28;20029;-51
2022/03/11 06:37:42;;;;;;;23.05;13.48;;;;;;;3.86;55.03;101466.53;5081917;28;20120;-50
2022/03/11 06:40:08;;;;;;;26.00;13.90;;;;;;;3.89;55.19;101470.69;5078699;28;20028;-48
2022/03/11 06:42:42;;;;;;;26.42;13.77;;;;;;;3.89;55.15;101482.47;5074739;28;20025;-52
2022/03/11 06:45:08;;;;;;;23.98;13.30;;;;;;;3.94;55.06;101487.19;5074711;28;20173;-53
2022/03/11 06:47:34;;;;;;;23.13;13.38;;;;;;;3.93;55.71;101487.44;5074654;28;20376;-50
2022/03/11 06:49:59;;;;;;;26.05;13.48;;;;;;;3.97;55.43;101483.16;5075002;28;20035;-49
2022/03/11 06:52:25;;;;;;;27.73;13.80;;;;;;;4.02;55.17;101477.75;5073394;28;20024;-53
2022/03/11 06:54:51;;;;;;;23.65;12.63;;;;;;;4.07;55.17;101477.84;5075162;28;20036;-49
2022/03/11 06:57:17;;;;;;;24.13;13.25;;;;;;;4.09;55.03;101472.94;5083641;28;20034;-50
2022/03/11 06:59:45;;;;;;;26.33;13.77;;;;;;;4.16;55.12;101470.88;5092284;28;20110;-51
2022/03/11 07:02:10;;;;;;;25.23;14.05;;;;;;;4.23;54.52;101470.72;5092427;28;20387;-49
2022/03/11 07:04:36;;;;;;;25.30;13.30;;;;;;;4.27;54.21;101473.78;5092355;28;20483;-51
2022/03/11 07:07:01;;;;;;;24.40;14.00;;;;;;;4.28;54.69;101470.84;5090832;28;20051;-51
2022/03/11 07:09:26;;;;;;;26.20;14.30;;;;;;;4.30;54.47;101471.38;5083597;28;20040;-52
2022/03/11 07:12:01;;;;;;;25.50;14.48;;;;;;;4.37;54.44;101472.06;5070708;28;20054;-53
2022/03/11 07:14:33;;;;;;;24.83;13.77;;;;;;;4.41;54.24;101477.88;5071519;28;20086;-51
2022/03/11 07:16:58;;;;;;;26.95;15.20;;;;;;;4.45;54.76;101479.03;5072388;28;20028;-53
2022/03/11 07:19:24;;;;;;;23.50;13.45;;;;;;;4.50;54.90;101478.28;5071545;28;20081;-52
2022/03/11 07:21:50;;;;;;;25.27;13.98;;;;;;;4.55;54.81;101466.56;5072349;28;20537;-49
2022/03/11 07:24:16;;;;;;;25.70;14.43;;;;;;;4.62;53.72;101472.72;5072123;28;20060;-52
2022/03/11 07:26:41;;;;;;;25.75;14.18;;;;;;;4.63;53.34;101472.47;5071132;28;20066;-53
2022/03/11 07:29:06;;;;;;;24.65;13.98;;;;;;;4.68;53.99;101474.47;5071049;28;20025;-52
2022/03/11 07:31:32;;;;;;;24.85;14.60;;;;;;;4.76;54.08;101474.03;5071813;28;20021;-51
2022/03/11 07:33:57;;;;;;;27.48;14.82;;;;;;;4.81;53.45;101485.09;5071761;28;20143;-52
2022/03/11 07:36:23;;;;;;;26.25;14.20;;;;;;;4.88;53.60;101470.38;5071955;28;20094;-51
2022/03/11 07:38:48;;;;;;;25.85;15.15;;;;;;;4.92;53.80;101471.50;5070860;28;20032;-48
2022/03/11 07:41:15;;;;;;;25.63;14.93;;;;;;;4.96;53.69;101473.47;5070705;28;20094;-49
2022/03/11 07:43:44;;;;;;;26.10;14.80;;;;;;;5.00;53.40;101469.16;5071372;28;20028;-49
2022/03/11 07:46:10;;;;;;;26.48;15.73;;;;;;;5.07;53.10;101465.41;5071852;28;20025;-49
2022/03/11 07:48:35;;;;;;;26.98;15.20;;;;;;;5.12;52.69;101471.78;5071412;28;20024;-51
2022/03/11 07:51:02;;;;;;;26.55;15.20;;;;;;;5.18;53.41;101467.19;5070232;28;20120;-51
2022/03/11 07:53:27;;;;;;;25.95;14.35;;;;;;;5.25;52.87;101458.78;5071417;28;20043;-49
2022/03/11 07:55:53;;;;;;;25.17;14.55;;;;;;;5.32;53.13;101473.13;5071066;28;20024;-52
2022/03/11 07:58:21;;;;;;;25.92;15.25;;;;;;;5.34;53.22;101460.00;5082091;28;20067;-49
2022/03/11 08:00:47;;;;;;;26.95;15.73;;;;;;;5.37;52.80;101454.00;5071240;28;20027;-51
2022/03/11 08:03:12;;;;;;;25.80;15.13;;;;;;;5.49;52.05;101459.34;5071224;28;20107;-50
2022/03/11 08:05:37;;;;;;;25.60;15.10;;;;;;;5.54;52.67;101462.13;5069581;28;20036;-53
2022/03/11 08:08:03;;;;;;;25.25;15.63;;;;;;;5.61;51.64;101449.06;5071344;28;20438;-50
2022/03/11 08:10:29;;;;;;;25.13;15.00;;;;;;;5.67;52.41;101449.09;5068943;28;20064;-51
2022/03/11 08:12:54;;;;;;;25.58;15.10;;;;;;;5.78;52.11;101446.22;5071429;28;20129;-51
2022/03/11 08:15:20;;;;;;;26.77;15.48;;;;;;;5.84;51.28;101436.09;5071359;28;20404;-51
2022/03/11 08:17:46;;;;;;;26.17;14.88;;;;;;;5.92;51.23;101435.63;5071330;28;20149;-51
2022/03/11 08:20:12;;;;;;;25.92;15.00;;;;;;;5.99;51.17;101426.38;5070319;28;20051;-53
2022/03/11 08:22:38;;;;;;;27.02;15.00;;;;;;;6.04;51.35;101432.78;5070052;28;20039;-52
2022/03/11 08:25:03;;;;;;;25.88;14.90;;;;;;;6.12;51.22;101430.63;5070841;28;20448;-53
2022/03/11 08:27:29;;;;;;;27.35;16.17;;;;;;;6.15;50.89;101421.84;5076862;28;20041;-53
2022/03/11 08:29:54;;;;;;;25.38;14.15;;;;;;;6.21;50.72;101429.06;5091219;28;20024;-51
2022/03/11 08:32:19;;;;;;;26.80;15.27;;;;;;;6.25;50.87;101421.94;5075545;28;20107;-50
2022/03/11 08:34:44;;;;;;;26.75;14.45;;;;;;;6.32;50.53;101421.72;5071273;28;20074;-52
2022/03/11 08:37:10;;;;;;;25.58;15.25;;;;;;;6.38;50.70;101409.66;5076566;28;20460;-54
2022/03/11 08:39:35;;;;;;;25.15;15.13;;;;;;;6.46;50.49;101403.69;5089937;28;20475;-51
2022/03/11 08:42:00;;;;;;;26.65;14.98;;;;;;;6.58;51.09;101416.38;5082846;28;20044;-54
2022/03/11 08:44:25;;;;;;;25.77;14.77;;;;;;;6.62;49.82;101409.28;5078594;28;20024;-53
2022/03/11 08:46:51;;;;;;;27.08;14.95;;;;;;;6.65;49.80;101412.31;5070773;28;20024;-49
2022/03/11 08:49:16;;;;;;;25.65;15.27;;;;;;;6.69;50.58;101410.69;5071926;28;20047;-53
2022/03/11 08:51:43;;;;;;;25.67;14.80;;;;;;;6.77;49.83;101414.84;5082025;28;20107;-50
2022/03/11 08:54:08;;;;;;;25.77;15.00;;;;;;;6.84;50.01;101417.38;5069221;28;20475;-52
2022/03/11 08:56:34;;;;;;;28.08;16.15;;;;;;;6.94;49.93;101411.13;5082347;28;20110;-52
2022/03/11 08:58:59;;;;;;;28.20;15.50;;;;;;;6.99;50.12;101403.69;5068699;28;20033;-51
2022/03/11 09:01:24;;;;;;;28.02;15.10;;;;;;;7.10;50.45;101400.97;5070587;28;20025;-52
2022/03/11 09:03:49;;;;;;;30.73;16.02;;;;;;;7.22;50.16;101404.34;5070519;28;20028;-53
2022/03/11 09:06:15;;;;;;;27.02;16.08;;;;;;;7.32;49.58;101406.31;5076661;28;20112;-52
2022/03/11 09:08:40;;;;;;;27.88;16.10;;;;;;;7.41;49.77;101409.34;5075525;28;20137;-52
2022/03/11 09:11:06;;;;;;;30.88;16.42;;;;;;;7.50;49.42;101407.72;5086068;28;20044;-54
2022/03/11 09:13:31;;;;;;;29.60;16.70;;;;;;;7.61;49.26;101403.06;5089517;28;20035;-52
2022/03/11 09:15:56;;;;;;;26.52;15.25;;;;;;;7.69;49.18;101391.53;5090920;28;20036;-51
2022/03/11 09:18:22;;;;;;;28.75;16.00;;;;;;;7.79;48.31;101388.75;5091513;28;20122;-53
2022/03/11 09:20:47;;;;;;;29.10;16.40;;;;;;;7.87;48.39;101395.66;5090920;28;20497;-51
2022/03/11 09:23:12;;;;;;;28.33;16.20;;;;;;;7.96;47.75;101395.94;5090490;28;20024;-53
2022/03/11 09:25:38;;;;;;;32.35;16.98;;;;;;;8.05;47.62;101391.53;5089048;28;20028;-50
2022/03/11 09:28:07;;;;;;;31.00;16.42;;;;;;;8.14;47.00;101383.53;5090231;28;20031;-53
2022/03/11 09:30:33;;;;;;;28.48;15.95;;;;;;;8.21;47.43;101384.09;5090161;28;20039;-50
2022/03/11 09:32:58;;;;;;;32.83;16.67;;;;;;;8.26;47.18;101386.03;5090455;28;20021;-52
2022/03/11 09:35:24;;;;;;;31.27;17.55;;;;;;;8.34;47.89;101385.47;5090527;28;20039;-51
2022/03/11 09:37:49;;;;;;;29.30;15.90;;;;;;;8.42;46.92;101384.91;5092644;28;20027;-53
2022/03/11 09:40:16;;;;;;;29.88;16.90;;;;;;;8.53;47.45;101382.16;5093501;28;20032;-51
2022/03/11 09:42:42;;;;;;;30.75;17.40;;;;;;;8.65;47.14;101377.13;5094569;28;20092;-51
2022/03/11 09:45:07;;;;;;;29.25;16.60;;;;;;;8.77;46.74;101379.59;5094635;28;20086;-52
2022/03/11 09:47:34;;;;;;;28.83;15.88;;;;;;;8.86;46.68;101371.56;5094374;28;20110;-52
2022/03/11 09:49:59;;;;;;;30.30;16.13;;;;;;;8.95;46.10;101364.34;5094157;28;20032;-52
2022/03/11 09:52:24;;;;;;;29.85;15.35;;;;;;;9.04;46.19;101364.59;5094151;28;20032;-52
2022/03/11 09:54:50;;;;;;;30.00;16.00;;;;;;;9.13;46.83;101362.91;5094139;28;20032;-50
2022/03/11 09:57:18;;;;;;;27.92;15.93;;;;;;;9.20;45.70;101359.84;5092239;28;20232;-53
2022/03/11 09:59:43;;;;;;;28.48;15.65;;;;;;;9.27;45.74;101345.69;5094188;28;20110;-50
2022/03/11 10:02:14;;;;;;;27.75;16.23;;;;;;;9.34;46.09;101344.28;5093917;28;20490;-53
2022/03/11 10:04:56;;;;;;;28.48;16.02;;;;;;;9.47;46.59;101344.75;5093917;28;20492;-53
2022/03/11 10:07:28;;;;;;;27.70;15.27;;;;;;;9.59;45.82;101333.34;5094124;28;20028;-51
2022/03/11 10:09:55;;;;;;;32.80;16.88;;;;;;;9.61;45.38;101325.59;5087480;28;20032;-53
2022/03/11 10:12:26;;;;;;;28.95;16.10;;;;;;;9.67;45.90;101328.03;5074097;28;20098;-53
2022/03/11 10:14:59;;;;;;;32.05;15.80;;;;;;;9.77;45.17;101327.13;5073544;28;20047;-53
2022/03/11 10:17:25;;;;;;;30.13;16.02;;;;;;;9.87;45.72;101319.88;5073391;28;20365;-53
2022/03/11 10:20:03;;;;;;;27.77;16.77;;;;;;;9.96;45.39;101313.44;5073414;28;20108;-52
2022/03/11 10:22:29;;;;;;;28.40;15.38;;;;;;;10.05;44.96;101319.16;5073292;28;20046;-53
2022/03/11 10:24:55;;;;;;;28.42;16.55;;;;;;;10.11;44.62;101308.88;5073497;28;20089;-52
2022/03/11 10:27:23;;;;;;;30.50;16.75;;;;;;;10.13;44.31;101314.94;5073320;28;20032;-53
2022/03/11 10:29:49;;;;;;;29.17;16.00;;;;;;;10.17;44.65;101306.88;5073367;28;20036;-51
2022/03/11 10:32:21;;;;;;;31.85;16.15;;;;;;;10.20;45.04;101309.88;5073578;28;20507;-53
2022/03/11 10:34:46;;;;;;;29.55;16.60;;;;;;;10.34;44.79;101315.53;5079819;28;20831;-54
2022/03/11 10:37:12;;;;;;;28.30;15.63;;;;;;;10.45;45.49;101308.81;5087021;28;20099;-58
2022/03/11 10:39:45;;;;;;;30.45;15.60;;;;;;;10.58;45.26;101301.75;5073485;28;20036;-53
2022/03/11 10:42:20;;;;;;;33.72;16.73;;;;;;;10.69;44.75;101291.38;5072837;28;20050;-54
2022/03/11 10:45:00;;;;;;;34.75;17.02;;;;;;;10.74;44.57;101288.56;5073085;28;20081;-51
2022/03/11 10:47:32;;;;;;;31.77;17.58;;;;;;;10.76;44.03;101296.53;5073448;28;20047;-53
2022/03/11 10:50:04;;;;;;;33.50;16.98;;;;;;;10.76;43.85;101288.25;5070643;28;20082;-54
2022/03/11 10:52:37;;;;;;;31.98;16.80;;;;;;;10.77;43.62;101276.88;5073172;28;20488;-50
2022/03/11 10:55:19;;;;;;;32.28;16.25;;;;;;;10.77;43.67;101278.81;5071671;28;20036;-52
2022/03/11 10:57:46;;;;;;;30.88;16.60;;;;;;;10.90;44.20;101291.09;5069417;28;20028;-53
2022/03/11 11:00:23;;;;;;;30.38;16.67;;;;;;;10.94;43.49;101278.31;5071926;28;20063;-53
2022/03/11 11:02:51;;;;;;;34.22;18.13;;;;;;;10.90;43.15;101272.56;5072664;28;20036;-54
2022/03/11 11:05:17;;;;;;;31.85;16.60;;;;;;;10.92;42.71;101272.25;5072557;28;20082;-50
2022/03/11 11:07:43;;;;;;;30.45;16.10;;;;;;;10.98;43.74;101282.13;5072519;28;20047;-51
2022/03/11 11:10:11;;;;;;;33.72;18.20;;;;;;;11.09;43.77;101280.06;5072190;28;20097;-54
2022/03/11 11:12:37;;;;;;;29.13;16.35;;;;;;;11.16;43.58;101279.66;5071111;28;20453;-53